THY9DX LTFM-LTBA
Flight info
| Callsign | THY9DX |
|---|---|
| Flight time | 0h 21m |
| Altitude | 8000 |
| Route | IST |
| Aircraft | B738/M-SDE2E3FGHIRWXY/LB1 |
Departure
| Time | 2026-04-25 21:50 |
|---|---|
| Airport | İstanbul Airport (LTFM) |
Arrival
| Time | 2026-04-25 22:11 |
|---|---|
| Airport | İstanbul Atatürk Airport (LTBA) |
| Time | Latitude | Longitude | Altitude | Speed | Heading |
|---|---|---|---|---|---|
| 2026-04-25 21:17 | 41.26211 | 28.74851 | 333 ft | 0 kts | 251° |
| 2026-04-25 21:33 | 41.26211 | 28.74852 | 333 ft | 1 kts | 251° |
| 2026-04-25 21:33 | 41.26219 | 28.74882 | 329 ft | 4 kts | 251° |
| 2026-04-25 21:34 | 41.26227 | 28.74916 | 329 ft | 4 kts | 251° |
| 2026-04-25 21:34 | 41.26234 | 28.74943 | 331 ft | 4 kts | 250° |
| 2026-04-25 21:34 | 41.26245 | 28.74975 | 330 ft | 4 kts | 234° |
| 2026-04-25 21:34 | 41.26263 | 28.74996 | 328 ft | 2 kts | 197° |
| 2026-04-25 21:35 | 41.26286 | 28.75005 | 328 ft | 4 kts | 197° |
| 2026-04-25 21:35 | 41.26312 | 28.75015 | 329 ft | 3 kts | 197° |
| 2026-04-25 21:35 | 41.26315 | 28.75017 | 329 ft | 0 kts | 197° |
| 2026-04-25 21:38 | 41.26311 | 28.75015 | 333 ft | 1 kts | 195° |
| 2026-04-25 21:38 | 41.26297 | 28.75010 | 332 ft | 3 kts | 196° |
| 2026-04-25 21:38 | 41.26264 | 28.75020 | 330 ft | 7 kts | 146° |
| 2026-04-25 21:38 | 41.26243 | 28.75097 | 333 ft | 11 kts | 91° |
| 2026-04-25 21:39 | 41.26245 | 28.75223 | 333 ft | 16 kts | 84° |
| 2026-04-25 21:39 | 41.26340 | 28.75276 | 331 ft | 18 kts | 359° |
| 2026-04-25 21:39 | 41.26481 | 28.75273 | 331 ft | 22 kts | 359° |
| 2026-04-25 21:39 | 41.26640 | 28.75270 | 333 ft | 23 kts | 359° |
| 2026-04-25 21:40 | 41.26795 | 28.75265 | 331 ft | 22 kts | 358° |
| 2026-04-25 21:40 | 41.26928 | 28.75263 | 333 ft | 14 kts | 0° |
| 2026-04-25 21:40 | 41.27022 | 28.75261 | 330 ft | 13 kts | 359° |
| 2026-04-25 21:40 | 41.27069 | 28.75178 | 333 ft | 13 kts | 270° |
| 2026-04-25 21:41 | 41.27068 | 28.75061 | 333 ft | 12 kts | 269° |
| 2026-04-25 21:41 | 41.27066 | 28.74947 | 333 ft | 12 kts | 269° |
| 2026-04-25 21:41 | 41.27064 | 28.74836 | 330 ft | 12 kts | 269° |
| 2026-04-25 21:41 | 41.27063 | 28.74723 | 332 ft | 13 kts | 269° |
| 2026-04-25 21:42 | 41.27061 | 28.74600 | 331 ft | 14 kts | 269° |
| 2026-04-25 21:42 | 41.27060 | 28.74466 | 333 ft | 15 kts | 268° |
| 2026-04-25 21:42 | 41.27058 | 28.74329 | 331 ft | 15 kts | 269° |
| 2026-04-25 21:42 | 41.27056 | 28.74192 | 331 ft | 15 kts | 269° |
| 2026-04-25 21:43 | 41.27054 | 28.74056 | 333 ft | 15 kts | 269° |
| 2026-04-25 21:43 | 41.27052 | 28.73916 | 333 ft | 15 kts | 269° |
| 2026-04-25 21:43 | 41.27051 | 28.73780 | 333 ft | 14 kts | 269° |
| 2026-04-25 21:43 | 41.27049 | 28.73647 | 333 ft | 14 kts | 269° |
| 2026-04-25 21:44 | 41.27047 | 28.73516 | 331 ft | 14 kts | 269° |
| 2026-04-25 21:44 | 41.27046 | 28.73388 | 329 ft | 12 kts | 269° |
| 2026-04-25 21:44 | 41.27043 | 28.73228 | 333 ft | 8 kts | 268° |
| 2026-04-25 21:45 | 41.27042 | 28.73178 | 333 ft | 8 kts | 268° |
| 2026-04-25 21:45 | 41.27041 | 28.73128 | 333 ft | 8 kts | 271° |
| 2026-04-25 21:45 | 41.27033 | 28.73008 | 332 ft | 9 kts | 233° |
| 2026-04-25 21:45 | 41.26977 | 28.72987 | 329 ft | 9 kts | 179° |
| 2026-04-25 21:46 | 41.26910 | 28.72988 | 332 ft | 10 kts | 180° |
| 2026-04-25 21:46 | 41.26837 | 28.72989 | 329 ft | 11 kts | 179° |
| 2026-04-25 21:46 | 41.26760 | 28.72991 | 331 ft | 11 kts | 182° |
| 2026-04-25 21:46 | 41.26720 | 28.72949 | 331 ft | 0 kts | 255° |
| 2026-04-25 21:47 | 41.26719 | 28.72942 | 331 ft | 2 kts | 258° |
| 2026-04-25 21:47 | 41.26716 | 28.72898 | 333 ft | 8 kts | 268° |
| 2026-04-25 21:48 | 41.26716 | 28.72796 | 333 ft | 14 kts | 270° |
| 2026-04-25 21:48 | 41.26713 | 28.72639 | 330 ft | 19 kts | 269° |
| 2026-04-25 21:48 | 41.26741 | 28.72519 | 331 ft | 14 kts | 342° |
| 2026-04-25 21:48 | 41.26776 | 28.72514 | 329 ft | 0 kts | 359° |
| 2026-04-25 21:49 | 41.26800 | 28.72513 | 331 ft | 22 kts | 359° |
| 2026-04-25 21:49 | 41.27212 | 28.72504 | 331 ft | 95 kts | 359° |
| 2026-04-25 21:49 | 41.28090 | 28.72485 | 333 ft | 154 kts | 359° |
| 2026-04-25 21:49 | 41.29245 | 28.72464 | 738 ft | 170 kts | 359° |
| 2026-04-25 21:50 | 41.30407 | 28.72442 | 1597 ft | 163 kts | 359° |
| 2026-04-25 21:50 | 41.31552 | 28.72404 | 2238 ft | 170 kts | 359° |
| 2026-04-25 21:50 | 41.32827 | 28.72367 | 2520 ft | 198 kts | 359° |
| 2026-04-25 21:50 | 41.34305 | 28.72332 | 2729 ft | 221 kts | 359° |
| 2026-04-25 21:51 | 41.35886 | 28.72297 | 2938 ft | 240 kts | 359° |
| 2026-04-25 21:51 | 41.37628 | 28.72260 | 3234 ft | 257 kts | 359° |
| 2026-04-25 21:51 | 41.39441 | 28.72221 | 3945 ft | 262 kts | 359° |
| 2026-04-25 21:51 | 41.41261 | 28.72166 | 4615 ft | 262 kts | 356° |
| 2026-04-25 21:52 | 41.43000 | 28.71468 | 4957 ft | 266 kts | 329° |
| 2026-04-25 21:52 | 41.44327 | 28.69770 | 4962 ft | 269 kts | 302° |
| 2026-04-25 21:52 | 41.44930 | 28.67424 | 4981 ft | 270 kts | 279° |
| 2026-04-25 21:52 | 41.45156 | 28.64935 | 4976 ft | 272 kts | 277° |
| 2026-04-25 21:53 | 41.45339 | 28.62424 | 4977 ft | 272 kts | 276° |
| 2026-04-25 21:53 | 41.45515 | 28.59909 | 4973 ft | 273 kts | 276° |
| 2026-04-25 21:53 | 41.45689 | 28.57386 | 4967 ft | 273 kts | 276° |
| 2026-04-25 21:53 | 41.45861 | 28.54871 | 4966 ft | 273 kts | 276° |
| 2026-04-25 21:54 | 41.46031 | 28.52356 | 4967 ft | 272 kts | 276° |
| 2026-04-25 21:54 | 41.46199 | 28.49848 | 4968 ft | 271 kts | 276° |
| 2026-04-25 21:54 | 41.46372 | 28.47348 | 4967 ft | 270 kts | 276° |
| 2026-04-25 21:54 | 41.46549 | 28.44855 | 4968 ft | 270 kts | 276° |
| 2026-04-25 21:55 | 41.46728 | 28.42368 | 4967 ft | 269 kts | 276° |
| 2026-04-25 21:55 | 41.46639 | 28.39889 | 4958 ft | 270 kts | 253° |
| 2026-04-25 21:55 | 41.45717 | 28.37740 | 4971 ft | 270 kts | 225° |
| 2026-04-25 21:55 | 41.44145 | 28.36420 | 4978 ft | 270 kts | 197° |
| 2026-04-25 21:56 | 41.42303 | 28.35945 | 4978 ft | 270 kts | 187° |
| 2026-04-25 21:56 | 41.41068 | 28.35741 | 4974 ft | 271 kts | 186° |
| 2026-04-25 21:56 | 41.38550 | 28.35360 | 4964 ft | 273 kts | 186° |
| 2026-04-25 21:56 | 41.36661 | 28.35083 | 4968 ft | 273 kts | 186° |
| 2026-04-25 21:57 | 41.34770 | 28.34808 | 4965 ft | 274 kts | 186° |
| 2026-04-25 21:57 | 41.32903 | 28.34530 | 4964 ft | 273 kts | 186° |
| 2026-04-25 21:57 | 41.31014 | 28.34238 | 4964 ft | 273 kts | 186° |
| 2026-04-25 21:57 | 41.29130 | 28.33944 | 4962 ft | 273 kts | 186° |
| 2026-04-25 21:58 | 41.27248 | 28.33648 | 4963 ft | 272 kts | 186° |
| 2026-04-25 21:58 | 41.25367 | 28.33352 | 4963 ft | 272 kts | 186° |
| 2026-04-25 21:58 | 41.23490 | 28.33056 | 4961 ft | 271 kts | 186° |
| 2026-04-25 21:58 | 41.21619 | 28.32762 | 4963 ft | 271 kts | 186° |
| 2026-04-25 21:59 | 41.19749 | 28.32469 | 4963 ft | 271 kts | 186° |
| 2026-04-25 21:59 | 41.17877 | 28.32175 | 4964 ft | 270 kts | 186° |
| 2026-04-25 21:59 | 41.16009 | 28.31882 | 4962 ft | 271 kts | 186° |
| 2026-04-25 22:00 | 41.12268 | 28.31295 | 4958 ft | 270 kts | 186° |
| 2026-04-25 22:00 | 41.10401 | 28.31002 | 4963 ft | 270 kts | 186° |
| 2026-04-25 22:00 | 41.08531 | 28.30709 | 4968 ft | 271 kts | 186° |
| 2026-04-25 22:00 | 41.06658 | 28.30416 | 4966 ft | 271 kts | 186° |
| 2026-04-25 22:01 | 41.04783 | 28.30123 | 4969 ft | 271 kts | 186° |
| 2026-04-25 22:01 | 41.02905 | 28.29829 | 4967 ft | 272 kts | 186° |
| 2026-04-25 22:01 | 41.01026 | 28.29536 | 4964 ft | 272 kts | 186° |
| 2026-04-25 22:01 | 40.99781 | 28.29358 | 4960 ft | 272 kts | 182° |
| 2026-04-25 22:02 | 40.97385 | 28.30167 | 4961 ft | 268 kts | 145° |
| 2026-04-25 22:02 | 40.95943 | 28.31721 | 4965 ft | 268 kts | 137° |
| 2026-04-25 22:02 | 40.94578 | 28.33382 | 4949 ft | 263 kts | 136° |
| 2026-04-25 22:02 | 40.93272 | 28.34992 | 4940 ft | 250 kts | 136° |
| 2026-04-25 22:03 | 40.92032 | 28.36524 | 4942 ft | 238 kts | 136° |
| 2026-04-25 22:03 | 40.90831 | 28.38011 | 4948 ft | 236 kts | 136° |
| 2026-04-25 22:03 | 40.89633 | 28.39494 | 4959 ft | 236 kts | 136° |
| 2026-04-25 22:03 | 40.88434 | 28.40977 | 4968 ft | 237 kts | 136° |
| 2026-04-25 22:04 | 40.87245 | 28.42447 | 4967 ft | 237 kts | 136° |
| 2026-04-25 22:04 | 40.86024 | 28.43958 | 4973 ft | 237 kts | 136° |
| 2026-04-25 22:04 | 40.84833 | 28.45430 | 4976 ft | 229 kts | 136° |
| 2026-04-25 22:04 | 40.83697 | 28.46835 | 4947 ft | 218 kts | 136° |
| 2026-04-25 22:05 | 40.82677 | 28.48237 | 4941 ft | 212 kts | 120° |
| 2026-04-25 22:05 | 40.82394 | 28.50093 | 4964 ft | 212 kts | 77° |
| 2026-04-25 22:05 | 40.83077 | 28.51806 | 4990 ft | 213 kts | 53° |
| 2026-04-25 22:05 | 40.83911 | 28.53447 | 4830 ft | 219 kts | 58° |
| 2026-04-25 22:06 | 40.84700 | 28.55169 | 4547 ft | 218 kts | 59° |
| 2026-04-25 22:06 | 40.85473 | 28.56870 | 4258 ft | 214 kts | 59° |
| 2026-04-25 22:06 | 40.86236 | 28.58538 | 3978 ft | 210 kts | 59° |
| 2026-04-25 22:06 | 40.86985 | 28.60170 | 3704 ft | 206 kts | 59° |
| 2026-04-25 22:07 | 40.87724 | 28.61780 | 3435 ft | 203 kts | 59° |
| 2026-04-25 22:07 | 40.88220 | 28.62860 | 3262 ft | 203 kts | 58° |
| 2026-04-25 22:07 | 40.89190 | 28.64972 | 2897 ft | 201 kts | 58° |
| 2026-04-25 22:07 | 40.89910 | 28.66539 | 2643 ft | 197 kts | 58° |
| 2026-04-25 22:08 | 40.90613 | 28.68069 | 2384 ft | 191 kts | 58° |
| 2026-04-25 22:08 | 40.91278 | 28.69514 | 2154 ft | 174 kts | 58° |
| 2026-04-25 22:08 | 40.91881 | 28.70824 | 1899 ft | 158 kts | 59° |
| 2026-04-25 22:08 | 40.92420 | 28.71998 | 1714 ft | 145 kts | 59° |
| 2026-04-25 22:09 | 40.92929 | 28.73104 | 1511 ft | 137 kts | 59° |
| 2026-04-25 22:09 | 40.93417 | 28.74164 | 1326 ft | 134 kts | 59° |
| 2026-04-25 22:09 | 40.93897 | 28.75207 | 1155 ft | 133 kts | 59° |
| 2026-04-25 22:09 | 40.94381 | 28.76258 | 988 ft | 135 kts | 58° |
| 2026-04-25 22:10 | 40.94864 | 28.77334 | 802 ft | 136 kts | 59° |
| 2026-04-25 22:10 | 40.95346 | 28.78386 | 622 ft | 136 kts | 57° |
| 2026-04-25 22:10 | 40.95843 | 28.79449 | 425 ft | 135 kts | 58° |
| 2026-04-25 22:10 | 40.96335 | 28.80505 | 252 ft | 135 kts | 58° |
| 2026-04-25 22:11 | 40.96823 | 28.81563 | 111 ft | 130 kts | 58° |
| 2026-04-25 22:11 | 40.97210 | 28.82393 | 104 ft | 75 kts | 58° |
| 2026-04-25 22:11 | 40.97371 | 28.82738 | 106 ft | 16 kts | 58° |
| 2026-04-25 22:11 | 40.97430 | 28.82864 | 104 ft | 16 kts | 57° |
| 2026-04-25 22:12 | 40.97510 | 28.82974 | 101 ft | 17 kts | 40° |
| 2026-04-25 22:12 | 40.97600 | 28.83049 | 105 ft | 11 kts | 28° |
| 2026-04-25 22:12 | 40.97670 | 28.83096 | 113 ft | 11 kts | 9° |
| 2026-04-25 22:12 | 40.97718 | 28.83072 | 112 ft | 11 kts | 327° |
| 2026-04-25 22:13 | 40.97724 | 28.82947 | 117 ft | 11 kts | 259° |
| 2026-04-25 22:13 | 40.97709 | 28.82853 | 115 ft | 10 kts | 258° |
| 2026-04-25 22:13 | 40.97691 | 28.82763 | 117 ft | 10 kts | 242° |
| 2026-04-25 22:13 | 40.97647 | 28.82684 | 113 ft | 12 kts | 242° |
| 2026-04-25 22:14 | 40.97627 | 28.82577 | 114 ft | 12 kts | 259° |
| 2026-04-25 22:14 | 40.97613 | 28.82473 | 115 ft | 12 kts | 259° |
| 2026-04-25 22:14 | 40.97598 | 28.82369 | 114 ft | 11 kts | 259° |
| 2026-04-25 22:14 | 40.97584 | 28.82270 | 115 ft | 11 kts | 257° |
| 2026-04-25 22:15 | 40.97570 | 28.82257 | 114 ft | 2 kts | 169° |
| 2026-04-25 22:15 | 40.97552 | 28.82263 | 113 ft | 3 kts | 170° |
| 2026-04-25 22:15 | 40.97531 | 28.82268 | 112 ft | 3 kts | 169° |
| 2026-04-25 22:16 | 40.97529 | 28.82269 | 111 ft | 0 kts | 169° |